Time;durP1;ratioP1;P1;durP2;ratioP2;P2;SDS_P1;SDS_P2;PMS_P1;PMS_P2;Temp;Humidity;BMP_temperature;BMP_pressure;BME280_temperature;BME280_humidity;BME280_pressure;Samples;Min_cycle;Max_cycle;Signal;HPM_P1;HPM_P2
2022/05/10 00:01:50;;;;;;;17.17;7.00;;;;;;;;;;5073744;28;20031;-44
2022/05/10 00:04:16;;;;;;;9.85;6.85;;;;;;;;;;5073787;28;20033;-43
2022/05/10 00:06:47;;;;;;;9.88;6.57;;;;;;;;;;5072662;28;20020;-43
2022/05/10 00:09:13;;;;;;;8.73;6.97;;;;;;;;;;5073403;28;20033;-43
2022/05/10 00:11:42;;;;;;;8.07;6.47;;;;;;;;;;5073859;28;20032;-44
2022/05/10 00:14:08;;;;;;;11.57;7.00;;;;;;;;;;5073791;28;20027;-43
2022/05/10 00:16:37;;;;;;;11.02;6.97;;;;;;;;;;5073740;28;20012;-44
2022/05/10 00:19:03;;;;;;;7.72;6.10;;;;;;;;;;5073508;28;20025;-44
2022/05/10 00:21:30;;;;;;;8.23;6.85;;;;;;;;;;5073451;28;20035;-44
2022/05/10 00:23:56;;;;;;;8.77;5.93;;;;;;;;;;5073665;28;20115;-44
2022/05/10 00:26:22;;;;;;;7.07;6.15;;;;;;;;;;5073456;28;20483;-44
2022/05/10 00:28:48;;;;;;;7.72;5.97;;;;;;;;;;5073472;28;20433;-43
2022/05/10 00:31:19;;;;;;;9.35;6.28;;;;;;;;;;5073455;28;20032;-43
2022/05/10 00:33:45;;;;;;;;;;;;;;;;;;5073780;28;20032;-43
2022/05/10 00:36:12;;;;;;;8.27;6.15;;;;;;;;;;5073219;28;20316;-44
2022/05/10 00:38:40;;;;;;;35.08;20.67;;;;;;;;;;5073205;28;20020;-44
2022/05/10 00:41:09;;;;;;;123.05;65.25;;;;;;;;;;5073382;28;20029;-51
2022/05/10 00:43:37;;;;;;;158.38;86.78;;;;;;;;;;5073454;28;20021;-44
2022/05/10 00:46:13;;;;;;;72.88;44.55;;;;;;;;;;5073298;28;20021;-46
2022/05/10 00:48:53;;;;;;;35.03;21.88;;;;;;;;;;5073072;28;20042;-43
2022/05/10 00:51:31;;;;;;;22.67;15.27;;;;;;;;;;5073234;28;20017;-43
2022/05/10 00:54:08;;;;;;;11.98;8.93;;;;;;;;;;5073498;28;20036;-43
2022/05/10 00:56:34;;;;;;;13.15;8.50;;;;;;;;;;5073357;28;20023;-46
2022/05/10 00:59:00;;;;;;;10.68;7.50;;;;;;;;;;5072974;28;20503;-44
2022/05/10 01:01:33;;;;;;;10.05;6.75;;;;;;;;;;5073019;28;20028;-43
2022/05/10 01:04:18;;;;;;;8.27;6.85;;;;;;;;;;5073145;28;20115;-43
2022/05/10 01:06:49;;;;;;;10.18;7.35;;;;;;;;;;5073112;28;20021;-44
2022/05/10 01:09:41;;;;;;;9.18;6.47;;;;;;;;;;5072886;28;20074;-44
2022/05/10 01:12:18;;;;;;;8.90;7.07;;;;;;;;;;5035110;28;20045;-46
2022/05/10 01:14:51;;;;;;;8.30;6.13;;;;;;;;;;5073244;28;20025;-47
2022/05/10 01:17:17;;;;;;;8.02;6.50;;;;;;;;;;5074091;28;20048;-46
2022/05/10 01:19:44;;;;;;;8.48;6.57;;;;;;;;;;5059171;28;20473;-43
2022/05/10 01:22:25;;;;;;;8.98;6.18;;;;;;;;;;5077115;28;20478;-43
2022/05/10 01:24:57;;;;;;;16.60;11.10;;;;;;;;;;5058817;28;20036;-44
2022/05/10 01:27:42;;;;;;;30.48;19.50;;;;;;;;;;5076646;28;20027;-44
2022/05/10 01:30:10;;;;;;;21.45;13.45;;;;;;;;;;5076721;28;20020;-43
2022/05/10 01:35:28;;;;;;;9.87;6.60;;;;;;;;;;5076996;28;20056;-43
2022/05/10 01:37:57;;;;;;;11.65;7.43;;;;;;;;;;5076640;28;20020;-44
2022/05/10 01:40:38;;;;;;;6.55;5.78;;;;;;;;;;5076326;28;20032;-43
2022/05/10 01:43:15;;;;;;;9.63;6.80;;;;;;;;;;5076448;28;20024;-44
2022/05/10 01:45:43;;;;;;;10.10;7.30;;;;;;;;;;5076229;28;20488;-44
2022/05/10 01:48:11;;;;;;;8.60;6.18;;;;;;;;;;5076368;28;20032;-44
2022/05/10 01:50:56;;;;;;;7.60;6.63;;;;;;;;;;5076253;28;20115;-43
2022/05/10 01:53:25;;;;;;;9.15;6.72;;;;;;;;;;5076331;28;20032;-43
2022/05/10 01:55:53;;;;;;;8.95;6.20;;;;;;;;;;5076214;28;20055;-43
2022/05/10 01:58:20;;;;;;;7.97;6.35;;;;;;;;;;5076442;28;20059;-45
2022/05/10 02:00:52;;;;;;;8.32;6.45;;;;;;;;;;5076184;28;20503;-44
2022/05/10 02:03:24;;;;;;;7.68;5.85;;;;;;;;;;5075901;28;20592;-44
2022/05/10 02:05:50;;;;;;;9.45;6.38;;;;;;;;;;5057976;28;20035;-46
2022/05/10 02:08:36;;;;;;;11.10;6.95;;;;;;;;;;5075966;28;20024;-47
2022/05/10 02:11:05;;;;;;;13.68;7.22;;;;;;;;;;5075532;28;20072;-44
2022/05/10 02:13:38;;;;;;;8.82;6.20;;;;;;;;;;5076308;28;20078;-46
2022/05/10 02:16:11;;;;;;;9.27;6.13;;;;;;;;;;5075893;28;20033;-44
2022/05/10 02:18:46;;;;;;;10.45;6.65;;;;;;;;;;5075798;28;20051;-45
2022/05/10 02:21:19;;;;;;;10.32;7.70;;;;;;;;;;5075625;28;20103;-44
2022/05/10 02:24:06;;;;;;;12.30;9.75;;;;;;;;;;5075891;28;20030;-44
2022/05/10 02:26:55;;;;;;;10.02;7.72;;;;;;;;;;5075560;28;20476;-43
2022/05/10 02:29:33;;;;;;;12.88;7.55;;;;;;;;;;5074341;28;20091;-44
2022/05/10 02:34:47;;;;;;;9.73;7.07;;;;;;;;;;5075917;28;20054;-43
2022/05/10 02:37:14;;;;;;;10.65;7.80;;;;;;;;;;5075344;28;20028;-43
2022/05/10 02:39:40;;;;;;;12.20;7.78;;;;;;;;;;5075335;28;20392;-43
2022/05/10 02:42:09;;;;;;;8.85;7.05;;;;;;;;;;5075376;28;20465;-44
2022/05/10 02:44:36;;;;;;;12.30;7.95;;;;;;;;;;5075432;28;20476;-44
2022/05/10 02:47:02;;;;;;;11.35;7.50;;;;;;;;;;5075240;28;20017;-43
2022/05/10 02:49:28;;;;;;;11.52;7.53;;;;;;;;;;5075197;28;20031;-46
2022/05/10 02:51:55;;;;;;;8.90;7.75;;;;;;;;;;5075233;28;20075;-44
2022/05/10 02:54:21;;;;;;;8.85;7.20;;;;;;;;;;5057248;28;20066;-44
2022/05/10 02:56:48;;;;;;;8.98;7.28;;;;;;;;;;5074876;28;20017;-43
2022/05/10 02:59:14;;;;;;;8.75;7.28;;;;;;;;;;5075139;28;20036;-44
2022/05/10 03:01:40;;;;;;;18.67;9.23;;;;;;;;;;5074855;28;20172;-43
2022/05/10 03:04:07;;;;;;;13.55;8.10;;;;;;;;;;5074718;28;20036;-44
2022/05/10 03:06:34;;;;;;;12.20;8.38;;;;;;;;;;5074904;28;20023;-44
2022/05/10 03:09:00;;;;;;;10.95;7.88;;;;;;;;;;5074696;28;20028;-44
2022/05/10 03:11:27;;;;;;;13.05;8.60;;;;;;;;;;5074590;28;20123;-44
2022/05/10 03:13:53;;;;;;;15.48;8.25;;;;;;;;;;5074595;28;20095;-43
2022/05/10 03:16:20;;;;;;;11.75;8.52;;;;;;;;;;5074660;28;20475;-43
2022/05/10 03:18:46;;;;;;;12.35;8.05;;;;;;;;;;5074699;28;20396;-43
2022/05/10 03:21:13;;;;;;;10.40;7.68;;;;;;;;;;5074649;28;20021;-43
2022/05/10 03:23:39;;;;;;;16.98;7.70;;;;;;;;;;5074592;28;20124;-43
2022/05/10 03:26:05;;;;;;;12.82;7.97;;;;;;;;;;5074471;28;20096;-43
2022/05/10 03:28:32;;;;;;;9.88;8.18;;;;;;;;;;5074276;28;20035;-44
2022/05/10 03:30:58;;;;;;;9.25;7.85;;;;;;;;;;5074561;28;20027;-44
2022/05/10 03:33:26;;;;;;;10.13;7.93;;;;;;;;;;5074342;28;20523;-44
2022/05/10 03:35:52;;;;;;;10.05;7.90;;;;;;;;;;5074323;28;20153;-44
2022/05/10 03:38:19;;;;;;;9.25;7.97;;;;;;;;;;5074258;28;20020;-43
2022/05/10 03:40:45;;;;;;;13.98;9.77;;;;;;;;;;5073805;28;20078;-43
2022/05/10 03:43:11;;;;;;;14.65;9.65;;;;;;;;;;5073981;28;20031;-44
2022/05/10 03:45:40;;;;;;;19.98;11.65;;;;;;;;;;5074466;28;20514;-45
2022/05/10 03:48:06;;;;;;;23.30;14.65;;;;;;;;;;5073953;28;20484;-43
2022/05/10 03:50:32;;;;;;;27.63;18.08;;;;;;;;;;5074012;28;20100;-44
2022/05/10 03:52:59;;;;;;;21.17;13.63;;;;;;;;;;5073939;28;20020;-44
2022/05/10 03:55:26;;;;;;;32.17;18.88;;;;;;;;;;5073904;28;20016;-43
2022/05/10 03:57:57;;;;;;;25.70;13.48;;;;;;;;;;5073719;28;20109;-44
2022/05/10 04:00:25;;;;;;;20.45;12.65;;;;;;;;;;5073835;28;20557;-43
2022/05/10 04:02:51;;;;;;;20.50;13.40;;;;;;;;;;5073848;28;20061;-44
2022/05/10 04:05:18;;;;;;;15.77;10.48;;;;;;;;;;5073689;28;20465;-44
2022/05/10 04:07:44;;;;;;;12.27;9.23;;;;;;;;;;5073761;28;20025;-44
2022/05/10 04:10:13;;;;;;;16.52;11.10;;;;;;;;;;5073384;28;20048;-44
2022/05/10 04:12:40;;;;;;;19.55;11.95;;;;;;;;;;5073583;28;20021;-44
2022/05/10 04:15:07;;;;;;;14.50;9.05;;;;;;;;;;5073542;28;20035;-43
2022/05/10 04:17:33;;;;;;;20.73;10.63;;;;;;;;;;5073514;28;20052;-44
2022/05/10 04:19:59;;;;;;;21.70;9.15;;;;;;;;;;5073675;28;20358;-44
2022/05/10 04:22:25;;;;;;;12.07;8.68;;;;;;;;;;5073488;28;20021;-44
2022/05/10 04:24:51;;;;;;;13.55;8.65;;;;;;;;;;5073439;28;20042;-44
2022/05/10 04:27:20;;;;;;;18.10;8.80;;;;;;;;;;5073362;28;20020;-45
2022/05/10 04:29:46;;;;;;;17.25;8.95;;;;;;;;;;5073840;28;20020;-45
2022/05/10 04:32:12;;;;;;;14.98;8.80;;;;;;;;;;5073642;28;20021;-46
2022/05/10 04:34:38;;;;;;;9.98;7.35;;;;;;;;;;5073481;28;20031;-44
2022/05/10 04:37:04;;;;;;;11.48;7.32;;;;;;;;;;5073452;28;20055;-46
2022/05/10 04:41:24;;;;;;;11.45;8.68;;;;;;;;;;5073381;28;20064;-44
2022/05/10 04:42:19;;;;;;;13.45;8.55;;;;;;;;;;5073310;28;20039;-44
2022/05/10 04:44:45;;;;;;;13.27;9.25;;;;;;;;;;5073108;28;20032;-46
2022/05/10 04:47:11;;;;;;;12.27;8.38;;;;;;;;;;5073446;28;20496;-47
2022/05/10 04:49:37;;;;;;;18.08;8.77;;;;;;;;;;5073278;28;20024;-45
2022/05/10 04:52:03;;;;;;;23.10;8.80;;;;;;;;;;5073977;28;20044;-45
2022/05/10 04:54:29;;;;;;;15.07;8.98;;;;;;;;;;5077601;28;20487;-45
2022/05/10 04:56:55;;;;;;;10.45;8.25;;;;;;;;;;5077544;28;20055;-44
2022/05/10 04:59:22;;;;;;;19.63;8.27;;;;;;;;;;5077228;28;20028;-45
2022/05/10 05:01:48;;;;;;;13.57;8.20;;;;;;;;;;5077175;28;20148;-44
2022/05/10 05:04:14;;;;;;;12.52;8.05;;;;;;;;;;5077001;28;20036;-45
2022/05/10 05:06:42;;;;;;;18.88;8.57;;;;;;;;;;5077178;28;20484;-46
2022/05/10 05:09:08;;;;;;;11.30;7.90;;;;;;;;;;5076834;28;20369;-45
2022/05/10 05:11:34;;;;;;;16.27;8.75;;;;;;;;;;5076908;28;20060;-47
2022/05/10 05:14:01;;;;;;;14.85;9.52;;;;;;;;;;5077072;28;20052;-45
2022/05/10 05:16:27;;;;;;;15.27;8.30;;;;;;;;;;5077048;28;20024;-47
2022/05/10 05:18:53;;;;;;;18.15;10.15;;;;;;;;;;5076750;28;20048;-46
2022/05/10 05:21:19;;;;;;;20.33;10.88;;;;;;;;;;5076738;28;20025;-45
2022/05/10 05:23:48;;;;;;;16.88;9.85;;;;;;;;;;5076776;28;20048;-44
2022/05/10 05:26:14;;;;;;;12.88;10.20;;;;;;;;;;5076713;28;20032;-45
2022/05/10 05:28:40;;;;;;;15.38;9.88;;;;;;;;;;5076770;28;20473;-44
2022/05/10 05:31:07;;;;;;;18.63;11.48;;;;;;;;;;5076707;28;20028;-45
2022/05/10 05:33:33;;;;;;;13.38;9.38;;;;;;;;;;5076991;28;20456;-44
2022/05/10 05:36:01;;;;;;;18.17;11.63;;;;;;;;;;5076632;28;20025;-44
2022/05/10 05:38:27;;;;;;;13.98;9.18;;;;;;;;;;5076505;28;20415;-45
2022/05/10 05:40:53;;;;;;;17.58;10.30;;;;;;;;;;5076922;28;20081;-46
2022/05/10 05:43:20;;;;;;;19.08;11.38;;;;;;;;;;5076413;28;20107;-47
2022/05/10 05:45:51;;;;;;;23.20;15.90;;;;;;;;;;5076235;28;20032;-45
2022/05/10 05:48:17;;;;;;;29.63;20.10;;;;;;;;;;5076503;28;20078;-46
2022/05/10 05:50:43;;;;;;;29.25;19.67;;;;;;;;;;5076195;28;20028;-44
2022/05/10 05:53:09;;;;;;;13.40;9.98;;;;;;;;;;5076255;28;20050;-44
2022/05/10 05:55:35;;;;;;;15.02;10.90;;;;;;;;;;5076094;28;20025;-46
2022/05/10 05:58:02;;;;;;;31.15;12.75;;;;;;;;;;5076125;28;20024;-45
2022/05/10 06:00:28;;;;;;;15.93;10.35;;;;;;;;;;5076177;28;20108;-45
2022/05/10 06:02:54;;;;;;;23.83;14.57;;;;;;;;;;5076362;28;20035;-47
2022/05/10 06:05:22;;;;;;;13.43;10.00;;;;;;;;;;5075941;28;20161;-44
2022/05/10 06:07:48;;;;;;;12.48;8.68;;;;;;;;;;5076287;28;20498;-44
2022/05/10 06:10:14;;;;;;;15.05;8.23;;;;;;;;;;5075637;28;20128;-44
2022/05/10 06:12:41;;;;;;;22.25;11.07;;;;;;;;;;5076199;28;20090;-44
2022/05/10 06:15:11;;;;;;;11.75;8.23;;;;;;;;;;5076075;28;20021;-44
2022/05/10 06:17:37;;;;;;;12.45;7.53;;;;;;;;;;5076220;28;20035;-44
2022/05/10 06:20:06;;;;;;;10.68;8.02;;;;;;;;;;5075954;28;20024;-44
2022/05/10 06:22:35;;;;;;;16.35;7.75;;;;;;;;;;5075763;28;20028;-44
2022/05/10 06:25:03;;;;;;;17.65;8.20;;;;;;;;;;5057616;28;20051;-44
2022/05/10 06:27:29;;;;;;;10.32;7.45;;;;;;;;;;5075844;28;20020;-43
2022/05/10 06:29:56;;;;;;;10.75;7.50;;;;;;;;;;5075777;28;20025;-44
2022/05/10 06:32:23;;;;;;;9.02;7.63;;;;;;;;;;5075861;28;20048;-45
2022/05/10 06:34:50;;;;;;;10.57;6.97;;;;;;;;;;5075374;28;20103;-44
2022/05/10 06:40:09;;;;;;;11.20;6.82;;;;;;;;;;5075989;28;20089;-44
2022/05/10 06:42:35;;;;;;;12.25;7.20;;;;;;;;;;5075367;28;20472;-44
2022/05/10 06:45:01;;;;;;;10.70;7.43;;;;;;;;;;5075225;28;20495;-47
2022/05/10 06:47:30;;;;;;;11.90;7.32;;;;;;;;;;5075161;28;20020;-45
2022/05/10 06:49:56;;;;;;;14.43;9.20;;;;;;;;;;5075061;28;20613;-45
2022/05/10 06:52:22;;;;;;;11.63;7.40;;;;;;;;;;5075139;28;20129;-44
2022/05/10 06:54:48;;;;;;;7.72;6.65;;;;;;;;;;5075354;28;20028;-45
2022/05/10 06:57:14;;;;;;;9.73;7.63;;;;;;;;;;5075464;28;20055;-46
2022/05/10 06:59:40;;;;;;;11.75;8.18;;;;;;;;;;5056993;28;20036;-44
2022/05/10 07:02:07;;;;;;;9.73;7.10;;;;;;;;;;5074962;28;20039;-44
2022/05/10 07:04:35;;;;;;;12.35;7.57;;;;;;;;;;5074903;28;20115;-44
2022/05/10 07:07:01;;;;;;;11.80;6.90;;;;;;;;;;5074792;28;20017;-43
2022/05/10 07:09:27;;;;;;;8.63;6.55;;;;;;;;;;5064970;28;20049;-46
2022/05/10 07:11:53;;;;;;;23.50;17.08;;;;;;;;;;5054667;28;20053;-43
2022/05/10 07:14:22;;;;;;;14.07;8.75;;;;;;;;;;5054610;28;20029;-44
2022/05/10 07:16:48;;;;;;;18.52;12.82;;;;;;;;;;5054366;28;20059;-43
2022/05/10 07:19:14;;;;;;;12.45;8.20;;;;;;;;;;5054568;28;20070;-46
2022/05/10 07:21:41;;;;;;;23.35;16.50;;;;;;;;;;5054632;28;20108;-45
2022/05/10 07:24:07;;;;;;;24.83;14.20;;;;;;;;;;5054471;28;20021;-43
2022/05/10 07:26:33;;;;;;;21.08;13.18;;;;;;;;;;5054520;28;20477;-43
2022/05/10 07:28:59;;;;;;;24.52;13.88;;;;;;;;;;5054544;28;20032;-46
2022/05/10 07:31:25;;;;;;;10.02;7.68;;;;;;;;;;5054685;28;20025;-45
2022/05/10 07:33:51;;;;;;;21.90;15.27;;;;;;;;;;5054282;28;20013;-44
2022/05/10 07:36:28;;;;;;;18.55;10.75;;;;;;;;;;5054259;28;20021;-46
2022/05/10 07:38:54;;;;;;;9.40;3.63;;;;;;;;;;5054086;28;20057;-44
2022/05/10 07:41:24;;;;;;;7.07;4.15;;;;;;;;;;5054321;28;20540;-44
2022/05/10 07:43:50;;;;;;;9.70;7.63;;;;;;;;;;5054253;28;20036;-44
2022/05/10 07:46:17;;;;;;;7.20;4.32;;;;;;;;;;5054074;28;20036;-43
2022/05/10 07:48:43;;;;;;;15.55;9.60;;;;;;;;;;5054104;28;20028;-43
2022/05/10 07:51:09;;;;;;;41.67;22.75;;;;;;;;;;5054390;28;20039;-44
2022/05/10 07:53:36;;;;;;;40.92;29.45;;;;;;;;;;5054430;28;20044;-44
2022/05/10 07:56:03;;;;;;;13.15;9.82;;;;;;;;;;5054133;28;20444;-44
2022/05/10 07:58:29;;;;;;;5.38;4.50;;;;;;;;;;5053852;28;20028;-45
2022/05/10 08:00:55;;;;;;;5.28;4.30;;;;;;;;;;5054245;28;20071;-46
2022/05/10 08:03:22;;;;;;;8.13;5.50;;;;;;;;;;5053839;28;20549;-46
2022/05/10 08:05:48;;;;;;;11.50;7.40;;;;;;;;;;5053509;28;20124;-44
2022/05/10 08:08:18;;;;;;;9.05;5.47;;;;;;;;;;5053635;28;20017;-44
2022/05/10 08:10:44;;;;;;;11.73;8.68;;;;;;;;;;5053610;28;20041;-46
2022/05/10 08:13:14;;;;;;;7.70;4.43;;;;;;;;;;5053897;28;20029;-45
2022/05/10 08:15:40;;;;;;;12.10;7.82;;;;;;;;;;5053765;28;20029;-44
2022/05/10 08:18:07;;;;;;;6.38;5.20;;;;;;;;;;5053594;28;20043;-44
2022/05/10 08:20:33;;;;;;;9.60;8.43;;;;;;;;;;5053345;28;20033;-44
2022/05/10 08:23:00;;;;;;;6.85;5.22;;;;;;;;;;5053542;28;20149;-45
2022/05/10 08:25:26;;;;;;;13.68;9.50;;;;;;;;;;5053462;28;20040;-45
2022/05/10 08:27:52;;;;;;;6.95;5.53;;;;;;;;;;5052708;28;20477;-46
2022/05/10 08:30:18;;;;;;;3.55;3.25;;;;;;;;;;5053509;28;20029;-45
2022/05/10 08:32:44;;;;;;;6.93;5.38;;;;;;;;;;5053310;28;20021;-45
2022/05/10 08:35:11;;;;;;;15.50;6.10;;;;;;;;;;5053288;28;20033;-43
2022/05/10 08:37:37;;;;;;;8.20;3.80;;;;;;;;;;5053440;28;20110;-43
2022/05/10 08:40:05;;;;;;;5.90;4.78;;;;;;;;;;5053409;28;20025;-44
2022/05/10 08:42:34;;;;;;;4.80;3.65;;;;;;;;;;5053415;28;20071;-45
2022/05/10 08:45:02;;;;;;;9.38;6.65;;;;;;;;;;5053476;28;20055;-44
2022/05/10 08:47:28;;;;;;;8.57;4.50;;;;;;;;;;5053221;28;20021;-46
2022/05/10 08:49:58;;;;;;;7.32;3.30;;;;;;;;;;5053250;28;20043;-45
2022/05/10 08:52:28;;;;;;;7.55;3.33;;;;;;;;;;5053406;28;20043;-43
2022/05/10 08:54:54;;;;;;;5.70;3.25;;;;;;;;;;5053087;28;20029;-43
2022/05/10 08:57:23;;;;;;;8.00;5.32;;;;;;;;;;5053299;28;20088;-43
2022/05/10 09:00:01;;;;;;;12.07;6.95;;;;;;;;;;5035294;28;20029;-43
2022/05/10 09:02:27;;;;;;;8.15;5.93;;;;;;;;;;5053236;28;20096;-43
2022/05/10 09:05:02;;;;;;;7.35;4.07;;;;;;;;;;5053115;28;20044;-42
2022/05/10 09:07:47;;;;;;;6.30;3.65;;;;;;;;;;5053152;28;20024;-43
2022/05/10 09:10:20;;;;;;;5.60;3.67;;;;;;;;;;5052748;28;20052;-43
2022/05/10 09:12:49;;;;;;;6.57;4.78;;;;;;;;;;5052983;28;20053;-43
2022/05/10 09:15:17;;;;;;;4.57;3.25;;;;;;;;;;5052880;28;20025;-43
2022/05/10 09:17:44;;;;;;;7.25;5.32;;;;;;;;;;5052881;28;20025;-43
2022/05/10 09:20:11;;;;;;;7.53;5.35;;;;;;;;;;5053003;28;20108;-43
2022/05/10 09:22:56;;;;;;;6.47;4.57;;;;;;;;;;5053358;28;20511;-47
2022/05/10 09:25:28;;;;;;;7.93;3.90;;;;;;;;;;5052960;28;20063;-43
2022/05/10 09:27:54;;;;;;;6.30;3.22;;;;;;;;;;5052712;28;20028;-46
2022/05/10 09:30:28;;;;;;;5.97;3.63;;;;;;;;;;5053031;28;20017;-46
2022/05/10 09:35:59;;;;;;;4.88;3.50;;;;;;;;;;5053140;28;20035;-44
2022/05/10 09:38:27;;;;;;;9.07;3.38;;;;;;;;;;5054196;28;20381;-43
2022/05/10 09:40:54;;;;;;;68.22;41.58;;;;;;;;;;5056460;28;20036;-45
2022/05/10 09:43:32;;;;;;;76.85;47.60;;;;;;;;;;5056440;28;20059;-44
2022/05/10 09:46:07;;;;;;;20.70;12.82;;;;;;;;;;5056362;28;20043;-43
2022/05/10 09:48:33;;;;;;;46.92;27.33;;;;;;;;;;5056282;28;20100;-43
2022/05/10 09:50:59;;;;;;;85.35;58.25;;;;;;;;;;5056219;28;20025;-42
2022/05/10 09:53:27;;;;;;;70.07;43.85;;;;;;;;;;5056374;28;20515;-46
2022/05/10 09:55:57;;;;;;;28.08;16.13;;;;;;;;;;5056458;28;20047;-42
2022/05/10 09:58:25;;;;;;;66.43;32.90;;;;;;;;;;5056114;28;20033;-43
2022/05/10 10:00:56;;;;;;;57.42;31.98;;;;;;;;;;5055970;28;20060;-45
2022/05/10 10:03:32;;;;;;;23.30;13.15;;;;;;;;;;5055994;28;20032;-46
2022/05/10 10:06:16;;;;;;;13.07;8.50;;;;;;;;;;5056065;28;20504;-46
2022/05/10 10:08:42;;;;;;;14.32;9.43;;;;;;;;;;5055892;28;20102;-47
2022/05/10 10:11:24;;;;;;;61.42;39.75;;;;;;;;;;5055796;28;20132;-44
2022/05/10 10:13:51;;;;;;;86.97;48.75;;;;;;;;;;5055986;28;20029;-45
2022/05/10 10:16:24;;;;;;;26.45;17.02;;;;;;;;;;5056008;28;20025;-46
2022/05/10 10:18:52;;;;;;;72.88;34.10;;;;;;;;;;5055831;28;20025;-45
2022/05/10 10:21:21;;;;;;;30.08;16.80;;;;;;;;;;5055725;28;20048;-44
2022/05/10 10:24:00;;;;;;;11.20;7.78;;;;;;;;;;5055751;28;20028;-44
2022/05/10 10:26:36;;;;;;;9.30;5.47;;;;;;;;;;5055569;28;20040;-43
2022/05/10 10:29:07;;;;;;;34.90;20.27;;;;;;;;;;5055669;28;20033;-43
2022/05/10 10:31:36;;;;;;;15.60;8.98;;;;;;;;;;5055484;28;20021;-43
2022/05/10 10:34:06;;;;;;;16.40;9.07;;;;;;;;;;5055560;28;20048;-46
2022/05/10 10:36:48;;;;;;;8.95;6.32;;;;;;;;;;5055347;28;20029;-44
2022/05/10 10:39:20;;;;;;;5.35;2.40;;;;;;;;;;5055394;28;20062;-43
2022/05/10 10:41:49;;;;;;;17.33;8.10;;;;;;;;;;5055336;28;20037;-45
2022/05/10 10:44:21;;;;;;;41.03;21.15;;;;;;;;;;5055141;28;20111;-42
2022/05/10 10:46:47;;;;;;;32.28;12.48;;;;;;;;;;5055019;28;20036;-44
2022/05/10 10:49:14;;;;;;;26.15;12.75;;;;;;;;;;5055057;28;20067;-44
2022/05/10 10:51:41;;;;;;;16.70;8.35;;;;;;;;;;5053371;28;20040;-43
2022/05/10 10:54:10;;;;;;;13.73;8.23;;;;;;;;;;5055366;28;20021;-42
2022/05/10 10:56:47;;;;;;;9.77;6.72;;;;;;;;;;5055075;28;20076;-43
2022/05/10 10:59:24;;;;;;;15.10;7.20;;;;;;;;;;5055102;28;20075;-43
2022/05/10 11:01:56;;;;;;;4.95;4.00;;;;;;;;;;5055014;28;20032;-45
2022/05/10 11:04:38;;;;;;;5.00;3.00;;;;;;;;;;5054801;28;20389;-43
2022/05/10 11:07:11;;;;;;;8.82;6.35;;;;;;;;;;5054992;28;20028;-45
2022/05/10 11:09:46;;;;;;;6.43;3.95;;;;;;;;;;5054710;28;20057;-44
2022/05/10 11:12:28;;;;;;;2.33;1.60;;;;;;;;;;5055069;28;20423;-43
2022/05/10 11:15:02;;;;;;;7.28;2.13;;;;;;;;;;5054629;28;20021;-41
2022/05/10 11:17:38;;;;;;;4.40;2.88;;;;;;;;;;5054546;28;20029;-42
2022/05/10 11:20:21;;;;;;;3.28;2.97;;;;;;;;;;5054571;28;20436;-43
2022/05/10 11:23:00;;;;;;;11.35;4.60;;;;;;;;;;5054808;28;20028;-41
2022/05/10 11:25:35;;;;;;;5.45;2.70;;;;;;;;;;5054219;28;20515;-41
2022/05/10 11:28:20;;;;;;;4.82;2.40;;;;;;;;;;5054625;28;20025;-40
2022/05/10 11:30:57;;;;;;;8.18;3.10;;;;;;;;;;5054474;28;20021;-43
2022/05/10 11:33:31;;;;;;;4.95;2.50;;;;;;;;;;5054346;28;20029;-43
2022/05/10 11:36:02;;;;;;;4.50;2.78;;;;;;;;;;5054121;28;20024;-41
2022/05/10 11:38:35;;;;;;;4.85;3.17;;;;;;;;;;5054371;28;20392;-41
2022/05/10 11:41:07;;;;;;;3.75;2.50;;;;;;;;;;5054450;28;20033;-41
2022/05/10 11:43:33;;;;;;;4.85;2.40;;;;;;;;;;5052939;28;20112;-40
2022/05/10 11:46:02;;;;;;;5.93;3.55;;;;;;;;;;5052992;28;20033;-40
2022/05/10 11:48:47;;;;;;;3.97;2.55;;;;;;;;;;5054058;28;20017;-39
2022/05/10 11:51:42;;;;;;;2.63;1.75;;;;;;;;;;5054058;28;20020;-39
2022/05/10 11:54:11;;;;;;;1.63;1.50;;;;;;;;;;5053938;28;20039;-42
2022/05/10 11:56:41;;;;;;;2.22;1.63;;;;;;;;;;5053896;28;20060;-40
2022/05/10 11:59:13;;;;;;;2.03;1.45;;;;;;;;;;5053762;28;20025;-39
2022/05/10 12:01:44;;;;;;;2.28;1.80;;;;;;;;;;5054037;28;20104;-39
2022/05/10 12:04:10;;;;;;;;;;;;;;;;;;5054349;28;20029;-39
2022/05/10 12:06:38;;;;;;;1.85;1.67;;;;;;;;;;5053794;28;19962;-39
2022/05/10 12:09:06;;;;;;;2.63;1.73;;;;;;;;;;5053739;28;20048;-39
2022/05/10 12:11:40;;;;;;;3.25;2.00;;;;;;;;;;5053622;28;20124;-39
2022/05/10 12:22:45;;;;;;;10.43;4.18;;;;;;;;;;5053202;28;20496;-39
2022/05/10 12:25:31;;;;;;;6.55;4.15;;;;;;;;;;5053110;28;20500;-39
2022/05/10 12:27:58;;;;;;;8.70;5.57;;;;;;;;;;5053066;28;20032;-41
2022/05/10 12:30:32;;;;;;;10.20;6.30;;;;;;;;;;5053264;28;20091;-41
2022/05/10 12:33:00;;;;;;;12.68;7.57;;;;;;;;;;5052910;28;20036;-39
2022/05/10 12:35:26;;;;;;;9.50;4.25;;;;;;;;;;5045746;28;20032;-41
2022/05/10 12:37:55;;;;;;;8.38;4.63;;;;;;;;;;5049410;28;20021;-42
2022/05/10 12:40:51;;;;;;;9.52;5.20;;;;;;;;;;5046686;28;20032;-41
2022/05/10 12:43:17;;;;;;;7.93;4.78;;;;;;;;;;5046355;28;20045;-41
2022/05/10 12:46:00;;;;;;;11.55;4.80;;;;;;;;;;5048963;28;20041;-42
2022/05/10 12:48:40;;;;;;;7.05;3.72;;;;;;;;;;5047188;28;20029;-43
2022/05/10 12:51:27;;;;;;;8.57;3.17;;;;;;;;;;5048898;28;20532;-43
2022/05/10 12:54:05;;;;;;;8.63;2.47;;;;;;;;;;5046924;28;20211;-43
2022/05/10 12:56:32;;;;;;;4.80;2.58;;;;;;;;;;5048839;28;20028;-43
2022/05/10 12:59:17;;;;;;;6.10;2.80;;;;;;;;;;5049266;28;20491;-44
2022/05/10 13:01:43;;;;;;;3.45;2.67;;;;;;;;;;5048352;28;20058;-43
2022/05/10 13:04:13;;;;;;;6.95;2.75;;;;;;;;;;5049364;28;20831;-42
2022/05/10 13:06:57;;;;;;;7.45;3.40;;;;;;;;;;5049420;28;20072;-44
2022/05/10 13:09:26;;;;;;;4.55;3.50;;;;;;;;;;5047980;28;20047;-43
2022/05/10 13:12:05;;;;;;;6.57;3.28;;;;;;;;;;5046272;28;20025;-42
2022/05/10 13:14:34;;;;;;;8.60;4.95;;;;;;;;;;5051709;28;20043;-44
2022/05/10 13:17:00;;;;;;;8.32;4.03;;;;;;;;;;5049274;28;20493;-43
2022/05/10 13:19:28;;;;;;;6.05;4.18;;;;;;;;;;5053247;28;20082;-43
2022/05/10 13:21:55;;;;;;;6.53;4.10;;;;;;;;;;5053206;28;20797;-43
2022/05/10 13:24:22;;;;;;;4.82;3.60;;;;;;;;;;5053101;28;20024;-44
2022/05/10 13:26:58;;;;;;;3.90;3.22;;;;;;;;;;5053006;28;20033;-44
2022/05/10 13:29:37;;;;;;;6.53;4.75;;;;;;;;;;5050131;28;20558;-42
2022/05/10 13:32:03;;;;;;;5.45;4.45;;;;;;;;;;5053240;28;20036;-42
2022/05/10 13:34:29;;;;;;;8.65;4.82;;;;;;;;;;5052431;28;20024;-41
2022/05/10 13:36:55;;;;;;;7.38;5.03;;;;;;;;;;5052092;28;20090;-43
2022/05/10 13:39:31;;;;;;;9.80;5.78;;;;;;;;;;5052686;28;20040;-42
2022/05/10 13:41:58;;;;;;;7.38;4.50;;;;;;;;;;5052866;28;20032;-42
2022/05/10 13:44:28;;;;;;;5.63;3.88;;;;;;;;;;5052895;28;20041;-42
2022/05/10 13:46:58;;;;;;;6.55;5.28;;;;;;;;;;5051224;28;20857;-41
2022/05/10 13:49:27;;;;;;;9.32;5.10;;;;;;;;;;5050852;28;20021;-42
2022/05/10 13:51:58;;;;;;;5.30;4.20;;;;;;;;;;5052488;28;20029;-43
2022/05/10 13:54:30;;;;;;;13.13;7.75;;;;;;;;;;5052271;28;20028;-44
2022/05/10 13:57:12;;;;;;;43.08;27.05;;;;;;;;;;5051023;28;20115;-44
2022/05/10 13:59:38;;;;;;;21.73;12.63;;;;;;;;;;5052575;28;20355;-45
2022/05/10 14:02:05;;;;;;;7.88;4.80;;;;;;;;;;5052610;28;20158;-43
2022/05/10 14:04:34;;;;;;;6.75;4.00;;;;;;;;;;5052560;28;20024;-42
2022/05/10 14:07:05;;;;;;;7.95;4.13;;;;;;;;;;5050806;28;20033;-42
2022/05/10 14:09:40;;;;;;;55.72;42.05;;;;;;;;;;5051088;28;20689;-45
2022/05/10 14:12:12;;;;;;;32.80;19.70;;;;;;;;;;5051194;28;20040;-45
2022/05/10 14:14:39;;;;;;;4.78;4.10;;;;;;;;;;5052330;28;20021;-41
2022/05/10 14:17:06;;;;;;;8.40;6.65;;;;;;;;;;5050999;28;20032;-43
2022/05/10 14:19:37;;;;;;;7.43;5.03;;;;;;;;;;5050854;28;20056;-44
2022/05/10 14:22:06;;;;;;;7.50;4.50;;;;;;;;;;5051463;28;20066;-45
2022/05/10 14:24:34;;;;;;;6.18;4.38;;;;;;;;;;5050435;28;20484;-44
2022/05/10 14:27:06;;;;;;;6.53;4.60;;;;;;;;;;5051911;28;20072;-44
2022/05/10 14:29:36;;;;;;;8.93;4.18;;;;;;;;;;5051711;28;20029;-43
2022/05/10 14:32:03;;;;;;;5.00;4.30;;;;;;;;;;5052055;28;20627;-44
2022/05/10 14:34:48;;;;;;;5.75;3.90;;;;;;;;;;5051602;28;20108;-44
2022/05/10 14:37:38;;;;;;;7.20;4.40;;;;;;;;;;5051096;28;20316;-43
2022/05/10 14:40:15;;;;;;;9.10;4.35;;;;;;;;;;4946568;28;20077;-46
2022/05/10 14:42:52;;;;;;;5.53;4.18;;;;;;;;;;4946638;28;20589;-43
2022/05/10 14:45:25;;;;;;;7.13;4.55;;;;;;;;;;4944907;28;20479;-42
2022/05/10 14:47:51;;;;;;;8.45;4.53;;;;;;;;;;4946138;28;20121;-41
2022/05/10 14:50:32;;;;;;;7.22;4.40;;;;;;;;;;4946630;28;20712;-42
2022/05/10 14:53:00;;;;;;;;;;;;;;;;;;4945696;28;20073;-44
2022/05/10 14:55:31;;;;;;;5.78;4.28;;;;;;;;;;4946069;28;19970;-43
2022/05/10 14:57:58;;;;;;;6.50;5.38;;;;;;;;;;4945868;28;20152;-43
2022/05/10 15:00:29;;;;;;;8.50;5.13;;;;;;;;;;4945785;28;20031;-41
2022/05/10 15:03:14;;;;;;;8.02;4.70;;;;;;;;;;4946561;28;20524;-43
2022/05/10 15:05:41;;;;;;;11.23;5.20;;;;;;;;;;4946311;28;20046;-41
2022/05/10 15:08:08;;;;;;;10.15;6.30;;;;;;;;;;4946057;28;20097;-43
2022/05/10 15:10:35;;;;;;;11.98;5.35;;;;;;;;;;4945915;28;20047;-42